This is the latest recevied weather packets stored in our database for station/object IZ1BLA-10. If no packets are shown the sender has not sent any weather packets the latest 10 day(s).
| Time | Temp. | Humidity | Pressure | Rain* | Wind** | Luminosity | Snow |
|---|---|---|---|---|---|---|---|
| 1777846151 | 12.78° C | 72% | 1018 hPa | - | - | - | - |
| 1777845552 | 15° C | 63% | 1017.4 hPa | - | - | - | - |
| 1777844952 | 13.89° C | 67% | 1017.8 hPa | - | - | - | - |
| 1777844351 | 13.89° C | 65% | 1017.5 hPa | - | - | - | - |
| 1777843752 | 13.89° C | 68% | 1017.7 hPa | - | - | - | - |
| 1777843152 | 13.33° C | 71% | 1017.8 hPa | - | - | - | - |
| 1777842552 | 13.33° C | 71% | 1017.8 hPa | - | - | - | - |
| 1777841952 | 13.89° C | 67% | 1017.5 hPa | - | - | - | - |
| 1777841351 | 13.89° C | 67% | 1017.6 hPa | - | - | - | - |
| 1777840751 | 13.89° C | 66% | 1017.5 hPa | - | - | - | - |
| 1777840152 | 13.89° C | 68% | 1017.6 hPa | - | - | - | - |
| 1777839552 | 13.89° C | 67% | 1017.5 hPa | - | - | - | - |
| 1777838951 | 14.44° C | 66% | 1017.4 hPa | - | - | - | - |
| 1777838351 | 14.44° C | 63% | 1017.2 hPa | - | - | - | - |
| 1777837751 | 15° C | 62% | 1017.1 hPa | - | - | - | - |
| 1777837151 | 15° C | 61% | 1017 hPa | - | - | - | - |
| 1777836551 | 15.56° C | 60% | 1016.8 hPa | - | - | - | - |
| 1777835951 | 17.78° C | 52% | 1016 hPa | - | - | - | - |
| 1777835351 | 17.22° C | 52% | 1016.2 hPa | - | - | - | - |
| 1777834751 | 20.56° C | 44% | 1014.9 hPa | - | - | - | - |
| 1777834151 | 21.67° C | 42% | 1014.7 hPa | - | - | - | - |
| 1777833552 | 20.56° C | 44% | 1014.9 hPa | - | - | - | - |
| 1777832952 | 21.11° C | 44% | 1014.7 hPa | - | - | - | - |
| 1777832351 | 21.11° C | 43% | 1014.8 hPa | - | - | - | - |
| 1777831751 | 21.11° C | 41% | 1014.6 hPa | - | - | - | - |
* Rain since midnight (hover to see other rain measurements)
** Current wind speed in m/s (hover to see current wind gust speed)